createdAt,value
2018-05-17T00:00:18.271Z,99.10
2018-05-17T00:02:45.706Z,99.10
2018-05-17T00:05:13.167Z,98.90
2018-05-17T00:07:40.627Z,98.90
2018-05-17T00:10:08.067Z,98.90
2018-05-17T00:12:35.597Z,99.00
2018-05-17T00:15:03.032Z,99.10
2018-05-17T00:17:30.484Z,99.20
2018-05-17T00:19:57.946Z,99.20
2018-05-17T00:22:25.610Z,99.10
2018-05-17T00:24:53.356Z,99.30
2018-05-17T00:27:20.787Z,99.20
2018-05-17T00:29:48.239Z,99.30
2018-05-17T00:32:16.004Z,99.30
2018-05-17T00:34:43.480Z,99.30
2018-05-17T00:37:10.935Z,99.30
2018-05-17T00:39:38.384Z,99.40
2018-05-17T00:42:05.836Z,99.40
2018-05-17T00:44:33.355Z,99.40
2018-05-17T00:47:00.804Z,99.80
2018-05-17T00:49:28.263Z,99.60
2018-05-17T00:51:55.728Z,99.30
2018-05-17T00:54:23.164Z,99.10
2018-05-17T00:56:50.645Z,99.20
2018-05-17T00:59:18.092Z,99.30
2018-05-17T01:01:45.550Z,99.30
2018-05-17T01:04:12.982Z,99.40
2018-05-17T01:06:40.442Z,99.40
2018-05-17T01:09:07.908Z,99.60
2018-05-17T01:11:35.465Z,99.60
2018-05-17T01:14:02.912Z,99.50
2018-05-17T01:16:30.362Z,99.50
2018-05-17T01:18:57.819Z,99.60
2018-05-17T01:21:25.396Z,99.80
2018-05-17T01:23:53.051Z,99.80
2018-05-17T01:26:20.504Z,99.90
2018-05-17T01:28:48.077Z,99.90
2018-05-17T01:31:15.536Z,99.90
2018-05-17T01:33:43.195Z,99.90
2018-05-17T01:36:10.633Z,99.80
2018-05-17T01:38:38.092Z,99.90
2018-05-17T01:41:05.552Z,99.90
2018-05-17T01:43:33.014Z,99.90
2018-05-17T01:46:00.460Z,99.90
2018-05-17T01:48:27.950Z,99.90
2018-05-17T01:50:55.391Z,99.90
2018-05-17T01:53:22.851Z,99.90
2018-05-17T01:55:50.294Z,99.90
2018-05-17T01:58:17.755Z,99.90
2018-05-17T02:00:45.190Z,99.90
2018-05-17T02:03:12.636Z,99.90
2018-05-17T02:05:40.087Z,99.80
2018-05-17T02:08:07.577Z,99.60
2018-05-17T02:10:35.033Z,99.80
2018-05-17T02:13:02.484Z,99.30
2018-05-17T02:15:29.956Z,99.40
2018-05-17T02:17:57.414Z,99.40
2018-05-17T02:20:24.949Z,99.50
2018-05-17T02:22:52.754Z,99.60
2018-05-17T02:25:20.203Z,99.60
2018-05-17T02:27:47.647Z,99.50
2018-05-17T02:30:15.105Z,99.30
2018-05-17T02:32:42.550Z,99.20
2018-05-17T02:35:10.017Z,99.20
2018-05-17T02:37:37.462Z,99.10
2018-05-17T02:40:04.924Z,99.20
2018-05-17T02:42:32.391Z,99.30
2018-05-17T02:45:00.300Z,99.40
2018-05-17T02:47:27.788Z,99.40
2018-05-17T02:49:55.234Z,99.20
2018-05-17T02:52:22.698Z,99.30
2018-05-17T02:54:50.157Z,99.40
2018-05-17T02:57:17.608Z,99.00
2018-05-17T02:59:45.061Z,99.40
2018-05-17T03:02:12.506Z,99.10
2018-05-17T03:04:39.944Z,99.10
2018-05-17T03:07:07.392Z,99.10
2018-05-17T03:09:34.828Z,98.90
2018-05-17T03:12:02.289Z,99.10
2018-05-17T03:14:29.878Z,99.20
2018-05-17T03:16:57.328Z,99.20
2018-05-17T03:19:24.802Z,99.30
2018-05-17T03:21:52.253Z,99.40
2018-05-17T03:24:19.700Z,99.30
2018-05-17T03:26:47.176Z,99.40
2018-05-17T03:29:14.611Z,99.50
2018-05-17T03:31:42.068Z,99.00
2018-05-17T03:34:09.517Z,98.80
2018-05-17T03:36:37.077Z,98.70
2018-05-17T03:39:04.532Z,98.70
2018-05-17T03:41:32.014Z,98.50
2018-05-17T03:43:59.484Z,98.40
2018-05-17T03:46:26.936Z,98.40
2018-05-17T03:48:54.607Z,98.20
2018-05-17T03:51:22.177Z,98.30
2018-05-17T03:53:49.626Z,98.20
2018-05-17T03:56:17.095Z,98.20
2018-05-17T03:58:44.567Z,98.30
2018-05-17T04:01:23.922Z,98.20
2018-05-17T04:04:03.207Z,98.40
2018-05-17T04:06:38.406Z,98.30
2018-05-17T04:09:05.864Z,98.20
2018-05-17T04:11:33.316Z,98.40
2018-05-17T04:14:01.703Z,98.30
2018-05-17T04:16:29.046Z,97.60
2018-05-17T04:18:56.607Z,97.60
2018-05-17T04:21:24.169Z,97.50
2018-05-17T04:23:51.601Z,97.60
2018-05-17T04:26:19.043Z,97.40
2018-05-17T04:28:46.486Z,97.30
2018-05-17T04:31:13.941Z,97.30
2018-05-17T04:33:41.472Z,97.00
2018-05-17T04:36:08.917Z,97.00
2018-05-17T04:38:36.363Z,96.80
2018-05-17T04:41:03.806Z,96.70
2018-05-17T04:43:32.034Z,96.60
2018-05-17T04:45:59.487Z,96.60
2018-05-17T04:48:26.928Z,96.40
2018-05-17T04:50:54.403Z,96.20
2018-05-17T04:53:21.835Z,96.20
2018-05-17T04:55:49.292Z,96.20
2018-05-17T04:58:16.736Z,96.20
2018-05-17T05:00:44.197Z,96.30
2018-05-17T05:03:11.644Z,96.20
2018-05-17T05:05:39.091Z,95.90
2018-05-17T05:08:06.527Z,95.60
2018-05-17T05:10:33.972Z,95.30
2018-05-17T05:13:01.456Z,95.20
2018-05-17T05:15:30.933Z,95.50
2018-05-17T05:17:58.358Z,95.40
2018-05-17T05:20:25.810Z,95.60
2018-05-17T05:22:53.260Z,95.90
2018-05-17T05:25:20.726Z,96.00
2018-05-17T05:27:48.174Z,95.70
2018-05-17T05:30:15.607Z,95.50
2018-05-17T05:32:43.056Z,95.60
2018-05-17T05:35:11.268Z,95.20
2018-05-17T05:37:38.821Z,95.50
2018-05-17T05:40:06.169Z,95.20
2018-05-17T05:42:33.622Z,95.00
2018-05-17T05:45:01.067Z,94.50
2018-05-17T05:47:28.512Z,94.40
2018-05-17T05:49:55.974Z,94.10
2018-05-17T05:52:23.412Z,94.10
2018-05-17T05:54:51.754Z,94.20
2018-05-17T05:57:19.218Z,94.00
2018-05-17T05:59:46.657Z,93.40
2018-05-17T06:02:14.134Z,93.50
2018-05-17T06:04:41.579Z,93.50
2018-05-17T06:07:09.018Z,93.20
2018-05-17T06:09:36.478Z,92.70
2018-05-17T06:12:03.940Z,92.90
2018-05-17T06:14:31.404Z,93.00
2018-05-17T06:16:59.200Z,92.80
2018-05-17T06:19:27.423Z,92.60
2018-05-17T06:21:54.874Z,92.50
2018-05-17T06:24:22.334Z,92.90
2018-05-17T06:26:49.780Z,92.80
2018-05-17T06:29:17.412Z,92.90
2018-05-17T06:31:44.877Z,93.10
2018-05-17T06:34:12.311Z,92.70
2018-05-17T06:36:39.849Z,92.70
2018-05-17T06:39:07.313Z,92.30
2018-05-17T06:41:34.774Z,92.10
2018-05-17T06:44:02.319Z,92.10
2018-05-17T06:46:29.677Z,92.20
2018-05-17T06:48:57.111Z,91.80
2018-05-17T06:51:24.634Z,91.90
2018-05-17T06:53:52.080Z,91.70
2018-05-17T06:56:19.526Z,91.50
2018-05-17T06:58:46.975Z,91.40
2018-05-17T07:01:14.532Z,91.70
2018-05-17T07:03:41.980Z,91.30
2018-05-17T07:06:09.416Z,91.10
2018-05-17T07:08:36.868Z,90.90
2018-05-17T07:11:04.314Z,91.00
2018-05-17T07:13:31.756Z,90.70
2018-05-17T07:15:59.208Z,90.90
2018-05-17T07:18:26.821Z,90.70
2018-05-17T07:20:54.104Z,90.70
2018-05-17T07:23:21.577Z,90.40
2018-05-17T07:25:48.989Z,89.80
2018-05-17T07:28:16.440Z,89.70
2018-05-17T07:30:43.888Z,89.70
2018-05-17T07:33:11.359Z,89.30
2018-05-17T07:35:39.028Z,89.70
2018-05-17T07:38:06.472Z,89.50
2018-05-17T07:40:33.921Z,89.70
2018-05-17T07:43:01.372Z,89.40
2018-05-17T07:45:28.826Z,88.00
2018-05-17T07:47:56.293Z,87.10
2018-05-17T07:50:23.737Z,86.30
2018-05-17T07:52:51.397Z,85.20
2018-05-17T07:55:18.907Z,85.50
2018-05-17T07:57:46.372Z,84.50
2018-05-17T08:00:13.820Z,82.80
2018-05-17T08:02:41.280Z,82.30
2018-05-17T08:05:08.731Z,82.70
2018-05-17T08:07:36.179Z,83.20
2018-05-17T08:10:04.415Z,83.10
2018-05-17T08:12:31.858Z,83.10
2018-05-17T08:14:59.966Z,84.00
2018-05-17T08:17:27.424Z,84.10
2018-05-17T08:19:54.878Z,83.50
2018-05-17T08:22:22.333Z,83.90
2018-05-17T08:24:49.765Z,83.70
2018-05-17T08:27:17.216Z,83.60
2018-05-17T08:29:44.675Z,83.50
2018-05-17T08:32:12.129Z,82.10
2018-05-17T08:34:39.584Z,81.10
2018-05-17T08:37:07.023Z,79.90
2018-05-17T08:39:34.600Z,79.10
2018-05-17T08:42:02.051Z,78.10
2018-05-17T08:44:29.491Z,77.80
2018-05-17T08:46:56.942Z,77.20
2018-05-17T08:49:24.397Z,77.60
2018-05-17T08:51:51.841Z,76.10
2018-05-17T08:54:19.454Z,76.10
2018-05-17T08:56:46.812Z,76.30
2018-05-17T08:59:14.269Z,76.70
2018-05-17T09:01:41.757Z,77.10
2018-05-17T09:04:09.197Z,77.30
2018-05-17T09:06:36.726Z,77.60
2018-05-17T09:09:04.170Z,76.80
2018-05-17T09:11:32.458Z,74.90
2018-05-17T09:13:59.895Z,74.80
2018-05-17T09:16:28.112Z,74.30
2018-05-17T09:18:55.563Z,74.20
2018-05-17T09:21:23.020Z,73.20
2018-05-17T09:23:50.471Z,73.40
2018-05-17T09:26:17.912Z,73.90
2018-05-17T09:28:45.346Z,74.00
2018-05-17T09:31:12.791Z,74.10
2018-05-17T09:33:40.235Z,72.90
2018-05-17T09:36:07.692Z,73.70
2018-05-17T09:38:35.139Z,73.40
2018-05-17T09:41:02.760Z,73.70
2018-05-17T09:43:30.203Z,72.70
2018-05-17T09:45:57.653Z,73.40
2018-05-17T09:48:25.099Z,71.60
2018-05-17T09:50:52.563Z,71.00
2018-05-17T09:53:20.007Z,70.30
2018-05-17T09:55:48.231Z,71.00
2018-05-17T09:58:15.792Z,70.90
2018-05-17T10:00:49.833Z,71.00
2018-05-17T10:03:17.294Z,70.40
2018-05-17T10:05:44.732Z,69.70
2018-05-17T10:08:12.179Z,70.60
2018-05-17T10:10:39.636Z,69.70
2018-05-17T10:13:07.106Z,67.80
2018-05-17T10:15:34.660Z,66.30
2018-05-17T10:18:02.043Z,65.00
2018-05-17T10:20:29.520Z,63.30
2018-05-17T10:22:56.985Z,61.70
2018-05-17T10:25:24.460Z,60.90
2018-05-17T10:27:51.896Z,59.30
2018-05-17T10:30:19.340Z,58.20
2018-05-17T10:32:46.896Z,55.70
2018-05-17T10:35:14.343Z,54.10
2018-05-17T10:37:41.796Z,52.50
2018-05-17T10:40:09.240Z,51.70
2018-05-17T10:42:37.469Z,50.30
2018-05-17T10:45:04.972Z,50.20
2018-05-17T10:47:32.424Z,50.80
2018-05-17T10:49:59.901Z,49.20
2018-05-17T10:52:27.731Z,48.40
2018-05-17T10:54:55.179Z,48.90
2018-05-17T10:57:22.698Z,49.00
2018-05-17T10:59:50.150Z,47.70
2018-05-17T11:02:17.919Z,48.40
2018-05-17T11:04:46.263Z,49.30
2018-05-17T11:07:13.748Z,49.30
2018-05-17T11:09:41.200Z,49.70
2018-05-17T11:12:08.681Z,50.90
2018-05-17T11:14:36.145Z,51.90
2018-05-17T11:17:03.588Z,51.40
2018-05-17T11:19:31.032Z,51.80
2018-05-17T11:21:58.531Z,52.10
2018-05-17T11:24:26.095Z,51.20
2018-05-17T11:26:53.548Z,51.40
2018-05-17T11:29:21.226Z,49.70
2018-05-17T11:31:49.594Z,48.10
2018-05-17T11:34:17.051Z,48.10
2018-05-17T11:36:44.500Z,47.00
2018-05-17T11:39:12.368Z,45.60
2018-05-17T11:41:39.847Z,45.20
2018-05-17T11:44:07.324Z,44.50
2018-05-17T11:46:34.764Z,45.10
2018-05-17T11:49:02.225Z,45.70
2018-05-17T11:51:29.778Z,46.30
2018-05-17T11:53:57.222Z,46.50
2018-05-17T11:56:24.676Z,46.30
2018-05-17T11:58:52.151Z,47.20
2018-05-17T12:01:19.605Z,46.80
2018-05-17T12:03:47.385Z,45.70
2018-05-17T12:06:14.837Z,45.40
2018-05-17T12:08:42.305Z,46.40
2018-05-17T12:11:09.775Z,47.90
2018-05-17T12:13:37.252Z,48.30
2018-05-17T12:16:04.712Z,48.60
2018-05-17T12:18:32.152Z,48.00
2018-05-17T12:20:59.596Z,47.40
2018-05-17T12:23:27.040Z,46.90
2018-05-17T12:25:54.483Z,47.90
2018-05-17T12:28:22.008Z,48.30
2018-05-17T12:30:49.472Z,47.90
2018-05-17T12:33:16.956Z,48.00
2018-05-17T12:35:44.399Z,48.10
2018-05-17T12:38:12.268Z,46.80
2018-05-17T12:40:39.732Z,46.80
2018-05-17T12:43:07.186Z,47.40
2018-05-17T12:45:34.649Z,47.90
2018-05-17T12:48:02.516Z,48.50
2018-05-17T12:50:29.977Z,48.40
2018-05-17T12:52:57.430Z,47.60
2018-05-17T12:55:24.906Z,45.80
2018-05-17T12:57:52.455Z,45.10
2018-05-17T13:00:19.906Z,45.30
2018-05-17T13:02:47.351Z,44.30
2018-05-17T13:05:20.552Z,43.60
2018-05-17T13:07:48.000Z,42.50
2018-05-17T13:10:15.446Z,42.20
2018-05-17T13:12:42.888Z,42.20
2018-05-17T13:15:10.736Z,43.40
2018-05-17T13:17:38.178Z,42.50
2018-05-17T13:20:05.623Z,42.60
2018-05-17T13:22:33.080Z,43.70
2018-05-17T13:25:00.537Z,43.90
2018-05-17T13:27:28.055Z,43.60
2018-05-17T13:29:55.588Z,44.20
2018-05-17T13:32:23.052Z,44.90
2018-05-17T13:34:50.628Z,44.00
2018-05-17T13:37:18.105Z,42.90
2018-05-17T13:39:45.543Z,43.20
2018-05-17T13:42:13.022Z,42.50
2018-05-17T13:44:40.472Z,41.90
2018-05-17T13:47:07.968Z,42.40
2018-05-17T13:49:35.427Z,42.90
2018-05-17T13:52:02.896Z,42.70
2018-05-17T13:54:30.363Z,42.30
2018-05-17T13:56:57.817Z,42.80
2018-05-17T13:59:25.267Z,43.70
2018-05-17T14:01:52.723Z,43.50
2018-05-17T14:04:20.184Z,43.40
2018-05-17T14:06:47.643Z,43.40
2018-05-17T14:09:15.088Z,43.20
2018-05-17T14:11:42.550Z,42.60
2018-05-17T14:14:09.993Z,42.60
2018-05-17T14:16:37.431Z,42.70
2018-05-17T14:19:04.888Z,42.50
2018-05-17T14:21:32.353Z,43.50
2018-05-17T14:23:59.816Z,42.70
2018-05-17T14:26:27.327Z,43.00
2018-05-17T14:28:54.776Z,42.20
2018-05-17T14:31:22.241Z,43.40
2018-05-17T14:33:49.688Z,42.60
2018-05-17T14:36:17.571Z,43.20
2018-05-17T14:38:45.143Z,44.30
2018-05-17T14:41:12.516Z,44.90
2018-05-17T14:43:39.972Z,46.10
2018-05-17T14:46:07.455Z,46.60
2018-05-17T14:48:34.866Z,47.20
2018-05-17T14:51:02.364Z,47.90
2018-05-17T14:53:29.826Z,47.90
2018-05-17T14:55:57.316Z,47.70
2018-05-17T14:58:24.740Z,47.20
2018-05-17T15:00:52.206Z,47.80
2018-05-17T15:03:19.653Z,48.10
2018-05-17T15:05:47.095Z,47.70
2018-05-17T15:08:14.672Z,48.00
2018-05-17T15:10:42.103Z,48.40
2018-05-17T15:13:09.550Z,48.80
2018-05-17T15:15:37.351Z,47.90
2018-05-17T15:18:04.807Z,48.30
2018-05-17T15:20:32.265Z,49.50
2018-05-17T15:22:59.707Z,49.50
2018-05-17T15:25:27.172Z,49.90
2018-05-17T15:27:54.740Z,50.30
2018-05-17T15:30:22.181Z,50.60
2018-05-17T15:32:49.645Z,49.60
2018-05-17T15:35:17.147Z,49.90
2018-05-17T15:37:44.628Z,49.60
2018-05-17T15:40:12.389Z,49.40
2018-05-17T15:42:39.836Z,50.30
2018-05-17T15:45:07.283Z,50.10
2018-05-17T15:47:34.799Z,50.20
2018-05-17T15:50:02.266Z,50.00
2018-05-17T15:52:29.712Z,50.10
2018-05-17T15:54:57.171Z,49.30
2018-05-17T15:57:24.625Z,50.00
2018-05-17T15:59:52.080Z,49.70
2018-05-17T16:02:19.530Z,50.00
2018-05-17T16:04:47.013Z,49.60
2018-05-17T16:07:14.475Z,50.10
2018-05-17T16:09:41.961Z,49.70
2018-05-17T16:12:09.481Z,49.30
2018-05-17T16:14:37.010Z,49.40
2018-05-17T16:17:04.384Z,48.40
2018-05-17T16:19:31.842Z,48.60
2018-05-17T16:21:59.325Z,49.80
2018-05-17T16:24:27.111Z,49.90
2018-05-17T16:26:54.564Z,48.40
2018-05-17T16:29:21.999Z,48.10
2018-05-17T16:31:49.528Z,48.90
2018-05-17T16:34:17.001Z,48.80
2018-05-17T16:36:44.620Z,48.00
2018-05-17T16:39:12.327Z,48.90
2018-05-17T16:41:39.781Z,48.20
2018-05-17T16:44:07.233Z,47.20
2018-05-17T16:46:34.682Z,47.10
2018-05-17T16:49:02.601Z,47.10
2018-05-17T16:51:30.088Z,46.60
2018-05-17T16:53:57.546Z,47.40
2018-05-17T16:56:24.981Z,46.60
2018-05-17T16:58:52.537Z,46.20
2018-05-17T17:01:19.917Z,46.30
2018-05-17T17:03:47.355Z,47.10
2018-05-17T17:06:14.800Z,47.20
2018-05-17T17:08:42.255Z,46.90
2018-05-17T17:11:09.697Z,46.80
2018-05-17T17:13:37.164Z,47.40
2018-05-17T17:16:04.608Z,47.90
2018-05-17T17:18:32.043Z,47.70
2018-05-17T17:20:59.544Z,48.00
2018-05-17T17:23:27.031Z,48.70
2018-05-17T17:25:54.489Z,49.00
2018-05-17T17:28:21.923Z,48.10
2018-05-17T17:30:49.365Z,48.00
2018-05-17T17:33:16.820Z,48.30
2018-05-17T17:35:44.259Z,48.10
2018-05-17T17:38:11.716Z,48.70
2018-05-17T17:40:44.782Z,49.20
2018-05-17T17:43:12.231Z,49.40
2018-05-17T17:45:39.675Z,49.90
2018-05-17T17:48:07.123Z,49.40
2018-05-17T17:50:34.579Z,49.60
2018-05-17T17:53:02.031Z,50.00
2018-05-17T17:55:30.266Z,50.60
2018-05-17T17:57:57.703Z,50.50
2018-05-17T18:00:25.156Z,50.50
2018-05-17T18:02:52.608Z,50.50
2018-05-17T18:05:20.109Z,50.90
2018-05-17T18:07:47.872Z,52.00
2018-05-17T18:10:15.335Z,51.60
2018-05-17T18:12:42.780Z,51.50
2018-05-17T18:15:10.241Z,52.20
2018-05-17T18:17:37.673Z,52.50
2018-05-17T18:20:05.131Z,52.50
2018-05-17T18:22:32.576Z,52.80
2018-05-17T18:25:00.016Z,53.20
2018-05-17T18:27:27.564Z,53.30
2018-05-17T18:29:55.025Z,53.80
2018-05-17T18:32:22.515Z,54.30
2018-05-17T18:34:50.353Z,54.60
2018-05-17T18:37:17.804Z,55.30
2018-05-17T18:39:45.312Z,55.90
2018-05-17T18:42:12.757Z,56.60
2018-05-17T18:44:40.220Z,56.90
2018-05-17T18:47:07.680Z,57.00
2018-05-17T18:49:35.125Z,57.10
2018-05-17T18:52:02.656Z,57.30
2018-05-17T18:54:30.137Z,57.30
2018-05-17T18:56:57.566Z,58.20
2018-05-17T18:59:24.989Z,57.80
2018-05-17T19:01:52.445Z,58.00
2018-05-17T19:04:19.888Z,58.20
2018-05-17T19:06:47.332Z,58.50
2018-05-17T19:09:14.795Z,58.70
2018-05-17T19:11:42.237Z,59.10
2018-05-17T19:14:09.739Z,59.40
2018-05-17T19:16:37.183Z,59.50
2018-05-17T19:19:04.631Z,59.70
2018-05-17T19:21:32.103Z,60.00
2018-05-17T19:23:59.548Z,60.40
2018-05-17T19:26:27.052Z,60.70
2018-05-17T19:28:54.579Z,60.60
2018-05-17T19:31:22.010Z,60.90
2018-05-17T19:33:49.489Z,61.60
2018-05-17T19:36:17.678Z,63.10
2018-05-17T19:38:45.140Z,62.00
2018-05-17T19:41:12.580Z,61.20
2018-05-17T19:43:40.404Z,61.50
2018-05-17T19:46:07.854Z,61.90
2018-05-17T19:48:35.315Z,62.50
2018-05-17T19:51:02.792Z,63.20
2018-05-17T19:53:30.248Z,63.70
2018-05-17T19:55:57.732Z,63.90
2018-05-17T19:58:25.188Z,64.30
2018-05-17T20:00:52.635Z,64.80
2018-05-17T20:03:20.083Z,65.50
2018-05-17T20:05:47.543Z,64.90
2018-05-17T20:08:14.988Z,64.60
2018-05-17T20:10:42.577Z,64.50
2018-05-17T20:13:10.018Z,64.30
2018-05-17T20:15:37.466Z,64.80
2018-05-17T20:18:04.916Z,65.10
2018-05-17T20:20:32.419Z,65.40
2018-05-17T20:22:59.812Z,65.70
2018-05-17T20:25:27.261Z,65.60
2018-05-17T20:27:54.725Z,65.60
2018-05-17T20:30:22.200Z,65.60
2018-05-17T20:32:49.661Z,65.60
2018-05-17T20:35:17.124Z,65.60
2018-05-17T20:37:44.567Z,65.90
2018-05-17T20:40:12.016Z,66.20
2018-05-17T20:42:39.472Z,66.30
2018-05-17T20:45:06.936Z,66.40
2018-05-17T20:47:34.400Z,66.90
2018-05-17T20:50:01.867Z,67.00
2018-05-17T20:52:29.293Z,67.20
2018-05-17T20:54:56.752Z,67.00
2018-05-17T20:57:24.208Z,66.90
2018-05-17T20:59:51.656Z,66.90
2018-05-17T21:02:19.163Z,67.00
2018-05-17T21:04:46.611Z,67.10
2018-05-17T21:07:14.055Z,67.20
2018-05-17T21:09:41.590Z,67.20
2018-05-17T21:12:09.047Z,66.60
2018-05-17T21:14:36.504Z,66.80
2018-05-17T21:17:03.952Z,67.10
2018-05-17T21:19:31.395Z,68.20
2018-05-17T21:21:58.865Z,67.70
2018-05-17T21:24:26.336Z,67.20
2018-05-17T21:26:53.802Z,67.10
2018-05-17T21:29:21.244Z,67.70
2018-05-17T21:31:48.705Z,67.50
2018-05-17T21:34:16.156Z,67.80
2018-05-17T21:36:43.597Z,68.30
2018-05-17T21:39:11.053Z,68.30
2018-05-17T21:41:38.569Z,68.70
2018-05-17T21:44:06.009Z,68.30
2018-05-17T21:46:33.455Z,68.30
2018-05-17T21:49:00.896Z,68.70
2018-05-17T21:51:28.507Z,68.60
2018-05-17T21:53:55.943Z,68.60
2018-05-17T21:56:23.388Z,68.90
2018-05-17T21:58:50.854Z,69.10
2018-05-17T22:01:18.290Z,69.00
2018-05-17T22:03:45.744Z,69.10
2018-05-17T22:06:13.252Z,69.20
2018-05-17T22:08:41.043Z,69.30
2018-05-17T22:11:08.487Z,69.00
2018-05-17T22:13:35.979Z,68.90
2018-05-17T22:16:03.445Z,69.10
2018-05-17T22:18:30.884Z,68.80
2018-05-17T22:20:58.332Z,69.00
2018-05-17T22:23:25.787Z,68.90
2018-05-17T22:25:53.275Z,69.20
2018-05-17T22:28:20.731Z,69.30
2018-05-17T22:30:48.180Z,69.60
2018-05-17T22:33:15.668Z,69.40
2018-05-17T22:35:43.132Z,69.50
2018-05-17T22:38:10.591Z,69.90
2018-05-17T22:40:38.051Z,70.30
2018-05-17T22:43:05.497Z,70.30
2018-05-17T22:45:32.945Z,70.30
2018-05-17T22:48:00.404Z,70.60
2018-05-17T22:50:27.856Z,70.80
2018-05-17T22:52:55.319Z,71.00
2018-05-17T22:55:22.788Z,71.40
2018-05-17T22:58:02.099Z,72.10
2018-05-17T23:00:29.627Z,72.60
2018-05-17T23:02:57.079Z,72.70
2018-05-17T23:05:24.532Z,73.10
2018-05-17T23:07:51.973Z,73.50
2018-05-17T23:10:19.855Z,74.00
2018-05-17T23:12:47.749Z,74.40
2018-05-17T23:15:15.187Z,74.70
2018-05-17T23:17:42.643Z,75.00
2018-05-17T23:20:10.201Z,75.30
2018-05-17T23:22:37.647Z,76.10
2018-05-17T23:25:05.083Z,76.40
2018-05-17T23:27:32.518Z,77.20
2018-05-17T23:29:59.972Z,77.90
2018-05-17T23:32:27.431Z,77.90
2018-05-17T23:34:54.887Z,77.90
2018-05-17T23:37:22.332Z,78.20
2018-05-17T23:39:49.825Z,78.10
2018-05-17T23:42:17.289Z,78.30
2018-05-17T23:44:44.727Z,78.80
2018-05-17T23:47:12.189Z,78.60
2018-05-17T23:49:39.634Z,78.40
2018-05-17T23:52:07.095Z,78.40
2018-05-17T23:54:34.543Z,78.70
2018-05-17T23:57:02.058Z,79.10
2018-05-17T23:59:29.520Z,79.50
